Главная страница
METAR-TAF:

METAR-TAF

Аэропорты :

Чебоксары, Россия

широта: 56-05-24N, долгота: 047-20-50E, высота над уровнем моря: 171 м

Текущие метеонаблюдения

Эта сводка был подготовлена 48 минут назад, в 09:30 UTC
Ветер 10 Узел от южный
Температура -7°C
Влажность 86%
Давление 1017 hPa
Видимость 10 км и более
Отдельные облака на высоте 2000 фута

METAR: UWKS 220930Z 17005MPS 9999 SCT020 M07/M09 Q1017 R24/850540 NOSIG RMK QFE748

Время: 13:18 (10:18 UTC)

Прогноз

Эта сводка был подготовлена 2 часа и 21 минут назад, в 07:57 UTC
Прогноз действительный с 22-го 09 UTC до 22-го 18 UTC
Ветер 12 Узел от южный с порывами до 25 Узел
Видимость: 3100 м
Сплошная облачность на высоте 1100 фута
небольшой снег, низовая метель
временами
С 22-го 11 UTC до 22-го 18 UTC
Ветер 6 Узел от южный с порывами до 16 Узел

TAF: UWKS 220757Z 2209/2218 19006G13MPS 3100 -SN BLSN OVC011 TEMPO 2211/2218 17003G08MPS

Метеонаблюдения и прогнозы для более 4000 аэропортов (сводки METAR и TAF).

Имеющиеся станции представлены на карте желтыми и красными точками.

Чтобы увидеть название станции, наведите на нее мышь.

Затем щелкните, чтобы увидеть метеонаблюдения и метеопрогнозы.

Управление картой: чтобы увеличить масштаб, щелкните зеленые кнопки с черным крестиком; чтобы уменьшить масштаб, щелкните зеленую кнопку с тире; для просмотра соседних карт щелкайте зеленые стрелки.


METAR-TAF: